Terminal Aerodrome Forecast
Issued by NWS Paducah, KY

Home | Current Version | Previous Version | Text Only | Print | Product List | Glossary On
Versions: 1 2 3 4 5 6 7 8 9 10 11 12 13 14 15
781
FTUS43 KPAH 141725
TAFEVV
TAF
KEVV 141725Z 1418/1518 19010G15KT P6SM SCT050
     FM150000 18007KT P6SM SKC
     FM150400 20012G18KT P6SM SCT060
     FM151100 24013G23KT P6SM VCSH SCT030 BKN060
     FM151400 29014G22KT P6SM VCSH SCT020 BKN035=

USA.gov is the U.S. government's official web portal to all federal, state and local government web resources and services.